sensor_id;sensor_type;location;lat;lon;timestamp;P1;durP1;ratioP1;P2;durP2;ratioP2
76962;SDS011;65902;51.452;7.198;2023-08-20T00:00:07;10.65;;;7.68;;
76962;SDS011;65902;51.452;7.198;2023-08-20T00:01:25;12.73;;;8.13;;
76962;SDS011;65902;51.452;7.198;2023-08-20T00:04:13;10.65;;;8.13;;
76962;SDS011;65902;51.452;7.198;2023-08-20T00:05:17;10.57;;;7.72;;
76962;SDS011;65902;51.452;7.198;2023-08-20T00:06:58;12.50;;;7.60;;
76962;SDS011;65902;51.452;7.198;2023-08-20T00:08:00;10.90;;;7.57;;
76962;SDS011;65902;51.452;7.198;2023-08-20T00:10:48;10.68;;;7.68;;
76962;SDS011;65902;51.452;7.198;2023-08-20T00:11:56;11.45;;;7.38;;
76962;SDS011;65902;51.452;7.198;2023-08-20T00:15:50;11.40;;;8.30;;
76962;SDS011;65902;51.452;7.198;2023-08-20T00:17:11;12.18;;;7.57;;
76962;SDS011;65902;51.452;7.198;2023-08-20T00:18:22;11.85;;;8.18;;
76962;SDS011;65902;51.452;7.198;2023-08-20T00:22:53;11.95;;;8.00;;
76962;SDS011;65902;51.452;7.198;2023-08-20T00:24:26;12.50;;;7.95;;
76962;SDS011;65902;51.452;7.198;2023-08-20T00:26:05;15.25;;;8.27;;
76962;SDS011;65902;51.452;7.198;2023-08-20T00:27:17;10.73;;;7.63;;
76962;SDS011;65902;51.452;7.198;2023-08-20T00:28:20;14.43;;;10.13;;
76962;SDS011;65902;51.452;7.198;2023-08-20T00:35:18;10.55;;;7.57;;
76962;SDS011;65902;51.452;7.198;2023-08-20T00:36:51;11.00;;;7.68;;
76962;SDS011;65902;51.452;7.198;2023-08-20T00:38:37;11.30;;;7.95;;
76962;SDS011;65902;51.452;7.198;2023-08-20T00:39:40;13.05;;;8.75;;
76962;SDS011;65902;51.452;7.198;2023-08-20T00:42:02;12.48;;;7.53;;
76962;SDS011;65902;51.452;7.198;2023-08-20T00:45:49;12.68;;;8.70;;
76962;SDS011;65902;51.452;7.198;2023-08-20T00:47:10;13.05;;;8.38;;
76962;SDS011;65902;51.452;7.198;2023-08-20T00:48:11;14.68;;;7.25;;
76962;SDS011;65902;51.452;7.198;2023-08-20T00:49:11;14.32;;;7.65;;
76962;SDS011;65902;51.452;7.198;2023-08-20T00:53:36;11.68;;;7.90;;
76962;SDS011;65902;51.452;7.198;2023-08-20T00:54:37;10.07;;;7.45;;
76962;SDS011;65902;51.452;7.198;2023-08-20T01:07:24;10.50;;;6.88;;
76962;SDS011;65902;51.452;7.198;2023-08-20T01:08:37;10.50;;;8.23;;
76962;SDS011;65902;51.452;7.198;2023-08-20T01:11:17;10.18;;;6.80;;
76962;SDS011;65902;51.452;7.198;2023-08-20T01:12:23;10.27;;;7.00;;
76962;SDS011;65902;51.452;7.198;2023-08-20T01:15:07;13.60;;;7.00;;
76962;SDS011;65902;51.452;7.198;2023-08-20T01:16:13;13.68;;;7.13;;
76962;SDS011;65902;51.452;7.198;2023-08-20T01:17:17;13.15;;;6.95;;
76962;SDS011;65902;51.452;7.198;2023-08-20T01:53:51;11.30;;;7.70;;
76962;SDS011;65902;51.452;7.198;2023-08-20T01:55:04;14.32;;;8.35;;
76962;SDS011;65902;51.452;7.198;2023-08-20T02:02:03;14.40;;;7.43;;
76962;SDS011;65902;51.452;7.198;2023-08-20T02:04:59;14.27;;;8.93;;
76962;SDS011;65902;51.452;7.198;2023-08-20T02:05:59;19.00;;;10.85;;
76962;SDS011;65902;51.452;7.198;2023-08-20T02:06:59;18.10;;;9.45;;
76962;SDS011;65902;51.452;7.198;2023-08-20T02:23:38;15.20;;;10.63;;
76962;SDS011;65902;51.452;7.198;2023-08-20T02:26:34;14.15;;;10.02;;
76962;SDS011;65902;51.452;7.198;2023-08-20T02:27:37;16.88;;;10.70;;
76962;SDS011;65902;51.452;7.198;2023-08-20T02:28:41;17.05;;;10.70;;
76962;SDS011;65902;51.452;7.198;2023-08-20T02:29:41;18.98;;;11.55;;
76962;SDS011;65902;51.452;7.198;2023-08-20T02:30:46;16.58;;;10.90;;
76962;SDS011;65902;51.452;7.198;2023-08-20T02:31:52;17.17;;;12.23;;
76962;SDS011;65902;51.452;7.198;2023-08-20T02:32:52;16.45;;;11.38;;
76962;SDS011;65902;51.452;7.198;2023-08-20T02:33:56;17.67;;;12.23;;
76962;SDS011;65902;51.452;7.198;2023-08-20T02:34:56;17.08;;;11.25;;
76962;SDS011;65902;51.452;7.198;2023-08-20T02:36:03;15.18;;;11.40;;
76962;SDS011;65902;51.452;7.198;2023-08-20T02:37:08;22.40;;;11.07;;
76962;SDS011;65902;51.452;7.198;2023-08-20T02:38:12;17.45;;;12.15;;
76962;SDS011;65902;51.452;7.198;2023-08-20T02:39:15;18.60;;;11.40;;
76962;SDS011;65902;51.452;7.198;2023-08-20T02:40:17;16.35;;;11.70;;
76962;SDS011;65902;51.452;7.198;2023-08-20T02:41:17;17.75;;;12.50;;
76962;SDS011;65902;51.452;7.198;2023-08-20T02:42:18;15.50;;;11.85;;
76962;SDS011;65902;51.452;7.198;2023-08-20T02:43:19;17.25;;;11.55;;
76962;SDS011;65902;51.452;7.198;2023-08-20T02:44:20;19.38;;;11.45;;
76962;SDS011;65902;51.452;7.198;2023-08-20T02:45:26;17.05;;;11.38;;
76962;SDS011;65902;51.452;7.198;2023-08-20T02:46:26;16.02;;;10.90;;
76962;SDS011;65902;51.452;7.198;2023-08-20T02:47:27;17.70;;;12.50;;
76962;SDS011;65902;51.452;7.198;2023-08-20T02:48:30;20.15;;;14.85;;
76962;SDS011;65902;51.452;7.198;2023-08-20T02:49:31;18.80;;;15.23;;
76962;SDS011;65902;51.452;7.198;2023-08-20T02:52:11;18.58;;;13.40;;
76962;SDS011;65902;51.452;7.198;2023-08-20T02:53:20;20.25;;;14.10;;
76962;SDS011;65902;51.452;7.198;2023-08-20T02:54:27;18.63;;;14.10;;
76962;SDS011;65902;51.452;7.198;2023-08-20T02:55:30;17.55;;;12.13;;
76962;SDS011;65902;51.452;7.198;2023-08-20T02:56:37;16.27;;;12.85;;
76962;SDS011;65902;51.452;7.198;2023-08-20T02:57:46;19.77;;;13.23;;
76962;SDS011;65902;51.452;7.198;2023-08-20T02:58:54;21.52;;;14.05;;
76962;SDS011;65902;51.452;7.198;2023-08-20T03:00:05;19.17;;;13.38;;
76962;SDS011;65902;51.452;7.198;2023-08-20T03:01:23;18.08;;;13.10;;
76962;SDS011;65902;51.452;7.198;2023-08-20T03:02:34;19.88;;;12.40;;
76962;SDS011;65902;51.452;7.198;2023-08-20T03:03:35;20.45;;;14.30;;
76962;SDS011;65902;51.452;7.198;2023-08-20T03:04:35;22.83;;;15.18;;
76962;SDS011;65902;51.452;7.198;2023-08-20T03:05:36;20.30;;;14.48;;
76962;SDS011;65902;51.452;7.198;2023-08-20T03:06:39;20.05;;;13.95;;
76962;SDS011;65902;51.452;7.198;2023-08-20T03:07:40;21.15;;;14.07;;
76962;SDS011;65902;51.452;7.198;2023-08-20T03:08:43;21.40;;;13.95;;
76962;SDS011;65902;51.452;7.198;2023-08-20T03:09:44;19.90;;;13.63;;
76962;SDS011;65902;51.452;7.198;2023-08-20T03:10:44;19.60;;;13.45;;
76962;SDS011;65902;51.452;7.198;2023-08-20T03:11:45;18.55;;;13.55;;
76962;SDS011;65902;51.452;7.198;2023-08-20T03:13:04;18.00;;;13.75;;
76962;SDS011;65902;51.452;7.198;2023-08-20T03:14:06;20.42;;;14.82;;
76962;SDS011;65902;51.452;7.198;2023-08-20T03:15:07;18.38;;;13.90;;
76962;SDS011;65902;51.452;7.198;2023-08-20T03:16:08;19.70;;;13.88;;
76962;SDS011;65902;51.452;7.198;2023-08-20T03:17:08;18.20;;;14.13;;
76962;SDS011;65902;51.452;7.198;2023-08-20T03:18:12;17.35;;;13.38;;
76962;SDS011;65902;51.452;7.198;2023-08-20T03:19:14;19.33;;;15.05;;
76962;SDS011;65902;51.452;7.198;2023-08-20T03:20:18;17.92;;;12.88;;
76962;SDS011;65902;51.452;7.198;2023-08-20T03:21:21;19.50;;;13.13;;
76962;SDS011;65902;51.452;7.198;2023-08-20T03:22:22;19.95;;;13.68;;
76962;SDS011;65902;51.452;7.198;2023-08-20T03:23:27;20.95;;;14.43;;
76962;SDS011;65902;51.452;7.198;2023-08-20T03:24:29;16.42;;;13.57;;
76962;SDS011;65902;51.452;7.198;2023-08-20T03:25:29;18.92;;;14.07;;
76962;SDS011;65902;51.452;7.198;2023-08-20T03:26:30;16.92;;;13.05;;
76962;SDS011;65902;51.452;7.198;2023-08-20T03:27:30;18.92;;;13.20;;
76962;SDS011;65902;51.452;7.198;2023-08-20T03:28:32;18.48;;;13.23;;
76962;SDS011;65902;51.452;7.198;2023-08-20T03:29:32;20.15;;;13.00;;
76962;SDS011;65902;51.452;7.198;2023-08-20T03:30:33;19.08;;;13.95;;
76962;SDS011;65902;51.452;7.198;2023-08-20T03:31:34;18.95;;;14.05;;
76962;SDS011;65902;51.452;7.198;2023-08-20T03:32:34;20.33;;;14.30;;
76962;SDS011;65902;51.452;7.198;2023-08-20T03:33:35;19.17;;;13.15;;
76962;SDS011;65902;51.452;7.198;2023-08-20T03:34:36;18.90;;;14.52;;
76962;SDS011;65902;51.452;7.198;2023-08-20T03:35:37;19.70;;;12.68;;
76962;SDS011;65902;51.452;7.198;2023-08-20T03:36:39;18.75;;;13.80;;
76962;SDS011;65902;51.452;7.198;2023-08-20T03:37:39;17.02;;;12.98;;
76962;SDS011;65902;51.452;7.198;2023-08-20T03:38:40;17.08;;;11.77;;
76962;SDS011;65902;51.452;7.198;2023-08-20T03:44:22;22.35;;;14.05;;
76962;SDS011;65902;51.452;7.198;2023-08-20T03:45:23;19.65;;;13.88;;
76962;SDS011;65902;51.452;7.198;2023-08-20T03:46:24;24.15;;;13.95;;
76962;SDS011;65902;51.452;7.198;2023-08-20T03:47:24;21.70;;;13.80;;
76962;SDS011;65902;51.452;7.198;2023-08-20T03:48:25;19.50;;;14.40;;
76962;SDS011;65902;51.452;7.198;2023-08-20T03:49:25;18.60;;;13.32;;
76962;SDS011;65902;51.452;7.198;2023-08-20T03:50:27;18.60;;;13.77;;
76962;SDS011;65902;51.452;7.198;2023-08-20T03:51:27;19.05;;;13.18;;
76962;SDS011;65902;51.452;7.198;2023-08-20T03:52:28;18.02;;;13.13;;
76962;SDS011;65902;51.452;7.198;2023-08-20T03:53:28;20.85;;;14.18;;
76962;SDS011;65902;51.452;7.198;2023-08-20T03:54:29;18.77;;;13.85;;
76962;SDS011;65902;51.452;7.198;2023-08-20T03:55:32;21.27;;;13.75;;
76962;SDS011;65902;51.452;7.198;2023-08-20T03:56:32;21.02;;;14.60;;
76962;SDS011;65902;51.452;7.198;2023-08-20T03:57:33;17.75;;;13.48;;
76962;SDS011;65902;51.452;7.198;2023-08-20T03:58:33;17.38;;;12.27;;
76962;SDS011;65902;51.452;7.198;2023-08-20T03:59:34;17.80;;;11.93;;
76962;SDS011;65902;51.452;7.198;2023-08-20T04:00:35;18.00;;;12.50;;
76962;SDS011;65902;51.452;7.198;2023-08-20T04:01:36;18.10;;;12.40;;
76962;SDS011;65902;51.452;7.198;2023-08-20T04:02:37;20.30;;;12.70;;
76962;SDS011;65902;51.452;7.198;2023-08-20T04:03:38;17.60;;;12.52;;
76962;SDS011;65902;51.452;7.198;2023-08-20T04:04:39;21.02;;;13.32;;
76962;SDS011;65902;51.452;7.198;2023-08-20T04:05:40;20.35;;;13.38;;
76962;SDS011;65902;51.452;7.198;2023-08-20T04:06:41;19.95;;;12.60;;
76962;SDS011;65902;51.452;7.198;2023-08-20T04:07:41;17.67;;;14.05;;
76962;SDS011;65902;51.452;7.198;2023-08-20T04:08:42;18.33;;;14.23;;
76962;SDS011;65902;51.452;7.198;2023-08-20T04:09:45;20.35;;;13.52;;
76962;SDS011;65902;51.452;7.198;2023-08-20T04:10:46;18.33;;;13.52;;
76962;SDS011;65902;51.452;7.198;2023-08-20T04:11:47;15.57;;;11.52;;
76962;SDS011;65902;51.452;7.198;2023-08-20T04:12:47;17.48;;;11.88;;
76962;SDS011;65902;51.452;7.198;2023-08-20T04:13:48;16.65;;;11.43;;
76962;SDS011;65902;51.452;7.198;2023-08-20T04:14:49;20.40;;;12.63;;
76962;SDS011;65902;51.452;7.198;2023-08-20T04:15:51;17.80;;;12.48;;
76962;SDS011;65902;51.452;7.198;2023-08-20T04:16:51;19.10;;;13.20;;
76962;SDS011;65902;51.452;7.198;2023-08-20T04:17:52;20.15;;;12.45;;
76962;SDS011;65902;51.452;7.198;2023-08-20T04:18:53;15.85;;;12.68;;
76962;SDS011;65902;51.452;7.198;2023-08-20T04:19:53;16.58;;;10.95;;
76962;SDS011;65902;51.452;7.198;2023-08-20T04:20:54;19.70;;;12.20;;
76962;SDS011;65902;51.452;7.198;2023-08-20T04:21:55;18.95;;;12.27;;
76962;SDS011;65902;51.452;7.198;2023-08-20T04:22:56;17.67;;;12.73;;
76962;SDS011;65902;51.452;7.198;2023-08-20T04:23:56;17.55;;;11.60;;
76962;SDS011;65902;51.452;7.198;2023-08-20T04:24:57;16.95;;;12.45;;
76962;SDS011;65902;51.452;7.198;2023-08-20T04:25:58;18.85;;;12.40;;
76962;SDS011;65902;51.452;7.198;2023-08-20T04:26:59;18.83;;;12.98;;
76962;SDS011;65902;51.452;7.198;2023-08-20T04:27:59;19.77;;;12.60;;
76962;SDS011;65902;51.452;7.198;2023-08-20T04:29:00;19.48;;;12.38;;
76962;SDS011;65902;51.452;7.198;2023-08-20T04:30:00;22.00;;;12.18;;
76962;SDS011;65902;51.452;7.198;2023-08-20T04:31:01;17.50;;;13.50;;
76962;SDS011;65902;51.452;7.198;2023-08-20T04:32:02;19.17;;;12.20;;
76962;SDS011;65902;51.452;7.198;2023-08-20T04:33:03;17.42;;;11.77;;
76962;SDS011;65902;51.452;7.198;2023-08-20T04:34:04;20.80;;;13.75;;
76962;SDS011;65902;51.452;7.198;2023-08-20T04:35:04;18.80;;;12.77;;
76962;SDS011;65902;51.452;7.198;2023-08-20T04:36:06;16.38;;;12.48;;
76962;SDS011;65902;51.452;7.198;2023-08-20T04:37:06;18.65;;;13.98;;
76962;SDS011;65902;51.452;7.198;2023-08-20T04:38:07;21.52;;;14.20;;
76962;SDS011;65902;51.452;7.198;2023-08-20T04:39:08;20.13;;;14.57;;
76962;SDS011;65902;51.452;7.198;2023-08-20T04:40:08;20.20;;;13.60;;
76962;SDS011;65902;51.452;7.198;2023-08-20T04:41:10;17.35;;;13.23;;
76962;SDS011;65902;51.452;7.198;2023-08-20T04:42:10;20.02;;;14.05;;
76962;SDS011;65902;51.452;7.198;2023-08-20T04:43:11;24.35;;;14.52;;
76962;SDS011;65902;51.452;7.198;2023-08-20T04:44:12;21.08;;;13.85;;
76962;SDS011;65902;51.452;7.198;2023-08-20T04:45:13;25.85;;;15.48;;
76962;SDS011;65902;51.452;7.198;2023-08-20T04:46:14;18.80;;;13.43;;
76962;SDS011;65902;51.452;7.198;2023-08-20T04:47:15;20.88;;;14.85;;
76962;SDS011;65902;51.452;7.198;2023-08-20T04:48:15;22.80;;;15.52;;
76962;SDS011;65902;51.452;7.198;2023-08-20T04:49:16;19.90;;;14.27;;
76962;SDS011;65902;51.452;7.198;2023-08-20T04:50:16;23.85;;;14.60;;
76962;SDS011;65902;51.452;7.198;2023-08-20T04:51:17;21.42;;;14.68;;
76962;SDS011;65902;51.452;7.198;2023-08-20T04:52:18;21.85;;;14.13;;
76962;SDS011;65902;51.452;7.198;2023-08-20T04:53:20;22.85;;;15.60;;
76962;SDS011;65902;51.452;7.198;2023-08-20T04:54:21;26.08;;;16.08;;
76962;SDS011;65902;51.452;7.198;2023-08-20T04:55:21;23.27;;;15.60;;
76962;SDS011;65902;51.452;7.198;2023-08-20T04:56:22;24.65;;;16.75;;
76962;SDS011;65902;51.452;7.198;2023-08-20T04:57:23;22.58;;;16.42;;
76962;SDS011;65902;51.452;7.198;2023-08-20T04:58:23;23.13;;;16.67;;
76962;SDS011;65902;51.452;7.198;2023-08-20T04:59:24;24.17;;;15.60;;
76962;SDS011;65902;51.452;7.198;2023-08-20T05:00:24;29.25;;;17.23;;
76962;SDS011;65902;51.452;7.198;2023-08-20T05:01:25;25.35;;;16.77;;
76962;SDS011;65902;51.452;7.198;2023-08-20T05:02:26;23.08;;;16.52;;
76962;SDS011;65902;51.452;7.198;2023-08-20T05:03:27;22.17;;;16.70;;
76962;SDS011;65902;51.452;7.198;2023-08-20T05:04:27;27.27;;;16.45;;
76962;SDS011;65902;51.452;7.198;2023-08-20T05:05:28;25.30;;;16.98;;
76962;SDS011;65902;51.452;7.198;2023-08-20T05:06:29;26.55;;;16.88;;
76962;SDS011;65902;51.452;7.198;2023-08-20T05:07:29;26.95;;;17.38;;
76962;SDS011;65902;51.452;7.198;2023-08-20T05:08:30;26.05;;;16.42;;
76962;SDS011;65902;51.452;7.198;2023-08-20T05:09:30;25.02;;;16.88;;
76962;SDS011;65902;51.452;7.198;2023-08-20T05:10:31;23.17;;;16.77;;
76962;SDS011;65902;51.452;7.198;2023-08-20T05:11:32;29.20;;;17.70;;
76962;SDS011;65902;51.452;7.198;2023-08-20T05:12:33;23.05;;;16.52;;
76962;SDS011;65902;51.452;7.198;2023-08-20T05:13:34;22.23;;;15.32;;
76962;SDS011;65902;51.452;7.198;2023-08-20T05:14:35;25.00;;;16.52;;
76962;SDS011;65902;51.452;7.198;2023-08-20T05:15:35;24.58;;;15.82;;
76962;SDS011;65902;51.452;7.198;2023-08-20T05:16:36;24.95;;;16.40;;
76962;SDS011;65902;51.452;7.198;2023-08-20T05:17:37;25.27;;;16.80;;
76962;SDS011;65902;51.452;7.198;2023-08-20T05:18:37;21.70;;;14.45;;
76962;SDS011;65902;51.452;7.198;2023-08-20T05:19:38;24.65;;;14.85;;
76962;SDS011;65902;51.452;7.198;2023-08-20T05:20:39;26.52;;;18.05;;
76962;SDS011;65902;51.452;7.198;2023-08-20T05:21:40;25.27;;;17.38;;
76962;SDS011;65902;51.452;7.198;2023-08-20T05:22:41;25.00;;;16.65;;
76962;SDS011;65902;51.452;7.198;2023-08-20T05:23:42;26.00;;;16.92;;
76962;SDS011;65902;51.452;7.198;2023-08-20T05:24:42;24.60;;;17.25;;
76962;SDS011;65902;51.452;7.198;2023-08-20T05:25:43;29.85;;;17.30;;
76962;SDS011;65902;51.452;7.198;2023-08-20T05:26:44;31.30;;;19.70;;
76962;SDS011;65902;51.452;7.198;2023-08-20T05:27:45;28.98;;;18.50;;
76962;SDS011;65902;51.452;7.198;2023-08-20T05:28:46;33.33;;;19.33;;
76962;SDS011;65902;51.452;7.198;2023-08-20T05:29:47;36.08;;;18.83;;
76962;SDS011;65902;51.452;7.198;2023-08-20T05:30:55;32.53;;;18.48;;
76962;SDS011;65902;51.452;7.198;2023-08-20T05:31:57;33.45;;;19.40;;
76962;SDS011;65902;51.452;7.198;2023-08-20T05:32:58;32.17;;;20.38;;
76962;SDS011;65902;51.452;7.198;2023-08-20T05:33:58;36.30;;;20.33;;
76962;SDS011;65902;51.452;7.198;2023-08-20T05:34:59;38.40;;;21.92;;
76962;SDS011;65902;51.452;7.198;2023-08-20T05:35:59;35.95;;;21.15;;
76962;SDS011;65902;51.452;7.198;2023-08-20T05:37:01;33.28;;;20.25;;
76962;SDS011;65902;51.452;7.198;2023-08-20T05:38:01;34.08;;;20.25;;
76962;SDS011;65902;51.452;7.198;2023-08-20T05:39:02;36.20;;;21.40;;
76962;SDS011;65902;51.452;7.198;2023-08-20T05:40:03;31.73;;;19.63;;
76962;SDS011;65902;51.452;7.198;2023-08-20T05:41:04;35.78;;;20.83;;
76962;SDS011;65902;51.452;7.198;2023-08-20T05:42:05;41.17;;;23.58;;
76962;SDS011;65902;51.452;7.198;2023-08-20T05:43:05;35.08;;;21.08;;
76962;SDS011;65902;51.452;7.198;2023-08-20T05:44:06;34.47;;;21.63;;
76962;SDS011;65902;51.452;7.198;2023-08-20T05:45:06;41.65;;;22.35;;
76962;SDS011;65902;51.452;7.198;2023-08-20T05:46:07;39.90;;;20.10;;
76962;SDS011;65902;51.452;7.198;2023-08-20T05:47:08;39.85;;;21.35;;
76962;SDS011;65902;51.452;7.198;2023-08-20T05:48:09;36.22;;;22.38;;
76962;SDS011;65902;51.452;7.198;2023-08-20T05:49:09;42.85;;;21.23;;
76962;SDS011;65902;51.452;7.198;2023-08-20T05:50:10;40.00;;;19.67;;
76962;SDS011;65902;51.452;7.198;2023-08-20T05:51:10;42.33;;;23.75;;
76962;SDS011;65902;51.452;7.198;2023-08-20T05:52:12;43.28;;;22.08;;
76962;SDS011;65902;51.452;7.198;2023-08-20T05:53:12;40.05;;;22.55;;
76962;SDS011;65902;51.452;7.198;2023-08-20T05:54:13;36.42;;;21.95;;
76962;SDS011;65902;51.452;7.198;2023-08-20T05:55:14;42.13;;;22.75;;
76962;SDS011;65902;51.452;7.198;2023-08-20T05:56:14;40.22;;;19.30;;
76962;SDS011;65902;51.452;7.198;2023-08-20T05:57:16;42.95;;;21.98;;
76962;SDS011;65902;51.452;7.198;2023-08-20T05:58:16;43.53;;;20.73;;
76962;SDS011;65902;51.452;7.198;2023-08-20T05:59:17;40.03;;;21.40;;
76962;SDS011;65902;51.452;7.198;2023-08-20T06:00:18;40.10;;;20.33;;
76962;SDS011;65902;51.452;7.198;2023-08-20T06:01:19;41.97;;;20.45;;
76962;SDS011;65902;51.452;7.198;2023-08-20T06:02:20;42.33;;;23.40;;
76962;SDS011;65902;51.452;7.198;2023-08-20T06:03:20;40.30;;;22.30;;
76962;SDS011;65902;51.452;7.198;2023-08-20T06:04:21;45.25;;;21.35;;
76962;SDS011;65902;51.452;7.198;2023-08-20T06:05:21;43.50;;;21.63;;
76962;SDS011;65902;51.452;7.198;2023-08-20T06:06:22;41.38;;;21.58;;
76962;SDS011;65902;51.452;7.198;2023-08-20T06:07:23;42.42;;;22.55;;
76962;SDS011;65902;51.452;7.198;2023-08-20T06:08:24;43.08;;;22.40;;
76962;SDS011;65902;51.452;7.198;2023-08-20T06:09:25;41.53;;;22.83;;
76962;SDS011;65902;51.452;7.198;2023-08-20T06:10:26;35.75;;;21.35;;
76962;SDS011;65902;51.452;7.198;2023-08-20T06:11:27;37.90;;;21.20;;
76962;SDS011;65902;51.452;7.198;2023-08-20T06:12:28;38.75;;;21.45;;
76962;SDS011;65902;51.452;7.198;2023-08-20T06:13:29;40.00;;;22.52;;
76962;SDS011;65902;51.452;7.198;2023-08-20T06:14:30;35.95;;;19.90;;
76962;SDS011;65902;51.452;7.198;2023-08-20T06:15:30;36.35;;;22.02;;
76962;SDS011;65902;51.452;7.198;2023-08-20T06:16:31;39.83;;;20.50;;
76962;SDS011;65902;51.452;7.198;2023-08-20T06:17:32;39.13;;;20.38;;
76962;SDS011;65902;51.452;7.198;2023-08-20T06:18:32;35.17;;;21.20;;
76962;SDS011;65902;51.452;7.198;2023-08-20T06:19:33;39.30;;;20.90;;
76962;SDS011;65902;51.452;7.198;2023-08-20T06:20:34;33.30;;;19.17;;
76962;SDS011;65902;51.452;7.198;2023-08-20T06:21:34;32.03;;;18.33;;
76962;SDS011;65902;51.452;7.198;2023-08-20T06:22:36;37.45;;;20.50;;
76962;SDS011;65902;51.452;7.198;2023-08-20T06:23:37;35.90;;;18.48;;
76962;SDS011;65902;51.452;7.198;2023-08-20T06:24:38;34.72;;;21.45;;
76962;SDS011;65902;51.452;7.198;2023-08-20T06:25:38;33.67;;;20.00;;
76962;SDS011;65902;51.452;7.198;2023-08-20T06:26:39;33.55;;;19.98;;
76962;SDS011;65902;51.452;7.198;2023-08-20T06:27:41;34.25;;;20.35;;
76962;SDS011;65902;51.452;7.198;2023-08-20T06:28:41;33.85;;;20.02;;
76962;SDS011;65902;51.452;7.198;2023-08-20T06:29:42;32.88;;;20.83;;
76962;SDS011;65902;51.452;7.198;2023-08-20T06:30:44;32.67;;;20.15;;
76962;SDS011;65902;51.452;7.198;2023-08-20T06:31:44;29.75;;;18.42;;
76962;SDS011;65902;51.452;7.198;2023-08-20T06:32:46;32.92;;;18.27;;
76962;SDS011;65902;51.452;7.198;2023-08-20T06:33:47;31.23;;;19.15;;
76962;SDS011;65902;51.452;7.198;2023-08-20T06:34:47;34.40;;;20.17;;
76962;SDS011;65902;51.452;7.198;2023-08-20T06:35:48;33.95;;;18.80;;
76962;SDS011;65902;51.452;7.198;2023-08-20T06:36:49;28.08;;;16.75;;
76962;SDS011;65902;51.452;7.198;2023-08-20T06:37:50;28.27;;;17.40;;
76962;SDS011;65902;51.452;7.198;2023-08-20T06:38:50;28.85;;;17.50;;
76962;SDS011;65902;51.452;7.198;2023-08-20T06:39:51;27.85;;;16.88;;
76962;SDS011;65902;51.452;7.198;2023-08-20T06:40:51;30.45;;;17.15;;
76962;SDS011;65902;51.452;7.198;2023-08-20T06:41:53;30.50;;;16.58;;
76962;SDS011;65902;51.452;7.198;2023-08-20T06:42:54;22.95;;;15.05;;
76962;SDS011;65902;51.452;7.198;2023-08-20T06:43:55;24.95;;;15.27;;
76962;SDS011;65902;51.452;7.198;2023-08-20T06:44:55;24.30;;;16.17;;
76962;SDS011;65902;51.452;7.198;2023-08-20T06:45:56;26.10;;;16.05;;
76962;SDS011;65902;51.452;7.198;2023-08-20T06:46:56;26.05;;;15.38;;
76962;SDS011;65902;51.452;7.198;2023-08-20T06:47:58;23.58;;;14.50;;
76962;SDS011;65902;51.452;7.198;2023-08-20T06:49:00;22.15;;;15.38;;
76962;SDS011;65902;51.452;7.198;2023-08-20T06:50:00;24.48;;;15.65;;
76962;SDS011;65902;51.452;7.198;2023-08-20T06:51:11;24.73;;;15.45;;
76962;SDS011;65902;51.452;7.198;2023-08-20T06:52:12;22.38;;;15.73;;
76962;SDS011;65902;51.452;7.198;2023-08-20T06:53:13;20.88;;;13.45;;
76962;SDS011;65902;51.452;7.198;2023-08-20T06:54:14;21.48;;;14.23;;
76962;SDS011;65902;51.452;7.198;2023-08-20T06:55:15;20.17;;;14.55;;
76962;SDS011;65902;51.452;7.198;2023-08-20T06:56:16;21.00;;;14.02;;
76962;SDS011;65902;51.452;7.198;2023-08-20T06:57:17;21.80;;;15.00;;
76962;SDS011;65902;51.452;7.198;2023-08-20T06:58:18;19.05;;;13.07;;
76962;SDS011;65902;51.452;7.198;2023-08-20T06:59:18;23.45;;;14.93;;
76962;SDS011;65902;51.452;7.198;2023-08-20T07:00:19;19.23;;;14.05;;
76962;SDS011;65902;51.452;7.198;2023-08-20T07:01:19;21.52;;;14.98;;
76962;SDS011;65902;51.452;7.198;2023-08-20T07:02:20;19.98;;;13.75;;
76962;SDS011;65902;51.452;7.198;2023-08-20T07:03:21;20.88;;;13.77;;
76962;SDS011;65902;51.452;7.198;2023-08-20T07:04:22;22.25;;;13.93;;
76962;SDS011;65902;51.452;7.198;2023-08-20T07:05:22;23.17;;;15.73;;
76962;SDS011;65902;51.452;7.198;2023-08-20T07:06:23;21.10;;;13.40;;
76962;SDS011;65902;51.452;7.198;2023-08-20T07:07:24;20.60;;;14.68;;
76962;SDS011;65902;51.452;7.198;2023-08-20T07:08:25;22.25;;;14.45;;
76962;SDS011;65902;51.452;7.198;2023-08-20T07:09:25;20.35;;;13.77;;
76962;SDS011;65902;51.452;7.198;2023-08-20T07:10:26;19.73;;;13.38;;
76962;SDS011;65902;51.452;7.198;2023-08-20T07:11:27;21.35;;;13.45;;
76962;SDS011;65902;51.452;7.198;2023-08-20T07:12:27;22.42;;;14.32;;
76962;SDS011;65902;51.452;7.198;2023-08-20T07:13:28;22.30;;;15.02;;
76962;SDS011;65902;51.452;7.198;2023-08-20T07:14:29;19.33;;;13.60;;
76962;SDS011;65902;51.452;7.198;2023-08-20T07:15:29;21.38;;;12.95;;
76962;SDS011;65902;51.452;7.198;2023-08-20T07:16:30;21.70;;;12.10;;
76962;SDS011;65902;51.452;7.198;2023-08-20T07:17:32;16.98;;;12.38;;
76962;SDS011;65902;51.452;7.198;2023-08-20T07:18:33;19.02;;;13.35;;
76962;SDS011;65902;51.452;7.198;2023-08-20T07:19:37;20.10;;;14.52;;
76962;SDS011;65902;51.452;7.198;2023-08-20T07:20:38;21.85;;;14.65;;
76962;SDS011;65902;51.452;7.198;2023-08-20T07:21:39;22.83;;;13.65;;
76962;SDS011;65902;51.452;7.198;2023-08-20T07:22:39;17.77;;;13.48;;
76962;SDS011;65902;51.452;7.198;2023-08-20T07:23:40;19.10;;;14.07;;
76962;SDS011;65902;51.452;7.198;2023-08-20T07:24:41;18.88;;;14.43;;
76962;SDS011;65902;51.452;7.198;2023-08-20T07:25:41;19.65;;;13.95;;
76962;SDS011;65902;51.452;7.198;2023-08-20T07:26:42;18.45;;;13.45;;
76962;SDS011;65902;51.452;7.198;2023-08-20T07:27:43;17.60;;;12.80;;
76962;SDS011;65902;51.452;7.198;2023-08-20T07:28:45;17.15;;;12.20;;
76962;SDS011;65902;51.452;7.198;2023-08-20T07:29:58;19.67;;;13.65;;
76962;SDS011;65902;51.452;7.198;2023-08-20T07:30:58;18.15;;;13.75;;
76962;SDS011;65902;51.452;7.198;2023-08-20T07:31:59;19.38;;;13.80;;
76962;SDS011;65902;51.452;7.198;2023-08-20T07:33:03;19.30;;;12.95;;
76962;SDS011;65902;51.452;7.198;2023-08-20T07:34:04;18.55;;;13.27;;
76962;SDS011;65902;51.452;7.198;2023-08-20T07:35:05;16.17;;;12.45;;
76962;SDS011;65902;51.452;7.198;2023-08-20T07:36:06;18.83;;;12.98;;
76962;SDS011;65902;51.452;7.198;2023-08-20T07:37:07;17.77;;;13.52;;
76962;SDS011;65902;51.452;7.198;2023-08-20T07:38:07;20.00;;;13.85;;
76962;SDS011;65902;51.452;7.198;2023-08-20T07:39:08;18.60;;;14.10;;
76962;SDS011;65902;51.452;7.198;2023-08-20T07:40:09;17.77;;;12.93;;
76962;SDS011;65902;51.452;7.198;2023-08-20T07:41:10;17.90;;;13.07;;
76962;SDS011;65902;51.452;7.198;2023-08-20T07:42:11;19.13;;;13.95;;
76962;SDS011;65902;51.452;7.198;2023-08-20T07:43:12;17.92;;;12.60;;
76962;SDS011;65902;51.452;7.198;2023-08-20T07:44:13;16.13;;;12.80;;
76962;SDS011;65902;51.452;7.198;2023-08-20T07:45:14;19.15;;;12.85;;
76962;SDS011;65902;51.452;7.198;2023-08-20T07:46:14;18.30;;;12.52;;
76962;SDS011;65902;51.452;7.198;2023-08-20T07:47:15;20.70;;;11.55;;
76962;SDS011;65902;51.452;7.198;2023-08-20T07:48:16;16.05;;;13.10;;
76962;SDS011;65902;51.452;7.198;2023-08-20T07:49:16;17.27;;;12.30;;
76962;SDS011;65902;51.452;7.198;2023-08-20T07:50:18;18.10;;;12.15;;